sensor_id;sensor_type;location;lat;lon;timestamp;P1;durP1;ratioP1;P2;durP2;ratioP2
56435;SDS011;42335;44.872;20.658;2022-12-07T00:03:43;21.23;;;12.20;;
56435;SDS011;42335;44.872;20.658;2022-12-07T00:06:10;23.77;;;11.10;;
56435;SDS011;42335;44.872;20.658;2022-12-07T00:08:37;20.13;;;10.13;;
56435;SDS011;42335;44.872;20.658;2022-12-07T00:11:06;21.35;;;10.13;;
56435;SDS011;42335;44.872;20.658;2022-12-07T00:13:37;27.52;;;11.98;;
56435;SDS011;42335;44.872;20.658;2022-12-07T00:16:04;24.58;;;11.65;;
56435;SDS011;42335;44.872;20.658;2022-12-07T00:18:31;30.27;;;14.13;;
56435;SDS011;42335;44.872;20.658;2022-12-07T00:21:01;28.10;;;12.88;;
56435;SDS011;42335;44.872;20.658;2022-12-07T00:23:37;23.92;;;10.40;;
56435;SDS011;42335;44.872;20.658;2022-12-07T00:26:07;32.60;;;14.05;;
56435;SDS011;42335;44.872;20.658;2022-12-07T00:28:37;45.15;;;17.90;;
56435;SDS011;42335;44.872;20.658;2022-12-07T00:33:34;52.70;;;22.55;;
56435;SDS011;42335;44.872;20.658;2022-12-07T00:36:00;47.00;;;20.05;;
56435;SDS011;42335;44.872;20.658;2022-12-07T00:38:28;35.95;;;17.27;;
56435;SDS011;42335;44.872;20.658;2022-12-07T00:40:59;46.92;;;21.60;;
56435;SDS011;42335;44.872;20.658;2022-12-07T00:43:26;42.70;;;18.75;;
56435;SDS011;42335;44.872;20.658;2022-12-07T00:45:53;36.33;;;18.33;;
56435;SDS011;42335;44.872;20.658;2022-12-07T00:48:19;36.25;;;16.52;;
56435;SDS011;42335;44.872;20.658;2022-12-07T00:50:45;33.80;;;16.02;;
56435;SDS011;42335;44.872;20.658;2022-12-07T00:53:11;20.77;;;11.57;;
56435;SDS011;42335;44.872;20.658;2022-12-07T00:55:37;14.30;;;8.13;;
56435;SDS011;42335;44.872;20.658;2022-12-07T00:58:02;14.45;;;8.18;;
56435;SDS011;42335;44.872;20.658;2022-12-07T01:00:29;17.27;;;10.20;;
56435;SDS011;42335;44.872;20.658;2022-12-07T01:02:55;19.65;;;10.68;;
56435;SDS011;42335;44.872;20.658;2022-12-07T01:05:21;16.70;;;10.13;;
56435;SDS011;42335;44.872;20.658;2022-12-07T01:07:46;19.77;;;11.50;;
56435;SDS011;42335;44.872;20.658;2022-12-07T01:10:15;19.13;;;11.13;;
56435;SDS011;42335;44.872;20.658;2022-12-07T01:12:41;15.98;;;8.40;;
56435;SDS011;42335;44.872;20.658;2022-12-07T01:15:07;11.45;;;6.60;;
56435;SDS011;42335;44.872;20.658;2022-12-07T01:17:33;12.40;;;6.00;;
56435;SDS011;42335;44.872;20.658;2022-12-07T01:19:58;9.38;;;5.75;;
56435;SDS011;42335;44.872;20.658;2022-12-07T01:22:24;10.80;;;5.45;;
56435;SDS011;42335;44.872;20.658;2022-12-07T01:24:50;12.25;;;6.35;;
56435;SDS011;42335;44.872;20.658;2022-12-07T01:27:15;10.77;;;5.82;;
56435;SDS011;42335;44.872;20.658;2022-12-07T01:29:41;12.68;;;5.53;;
56435;SDS011;42335;44.872;20.658;2022-12-07T01:32:07;11.30;;;5.22;;
56435;SDS011;42335;44.872;20.658;2022-12-07T01:34:33;8.13;;;4.72;;
56435;SDS011;42335;44.872;20.658;2022-12-07T01:36:58;8.45;;;4.88;;
56435;SDS011;42335;44.872;20.658;2022-12-07T01:39:24;9.18;;;5.32;;
56435;SDS011;42335;44.872;20.658;2022-12-07T01:41:50;9.15;;;4.85;;
56435;SDS011;42335;44.872;20.658;2022-12-07T01:44:29;5.95;;;3.85;;
56435;SDS011;42335;44.872;20.658;2022-12-07T01:46:57;10.65;;;5.25;;
56435;SDS011;42335;44.872;20.658;2022-12-07T01:51:56;8.40;;;4.70;;
56435;SDS011;42335;44.872;20.658;2022-12-07T01:54:35;8.38;;;4.82;;
56435;SDS011;42335;44.872;20.658;2022-12-07T01:57:01;7.72;;;4.75;;
56435;SDS011;42335;44.872;20.658;2022-12-07T01:59:29;6.55;;;4.50;;
56435;SDS011;42335;44.872;20.658;2022-12-07T02:01:55;7.35;;;4.50;;
56435;SDS011;42335;44.872;20.658;2022-12-07T02:04:22;6.43;;;4.75;;
56435;SDS011;42335;44.872;20.658;2022-12-07T02:06:48;7.00;;;4.50;;
56435;SDS011;42335;44.872;20.658;2022-12-07T02:09:15;8.10;;;4.78;;
56435;SDS011;42335;44.872;20.658;2022-12-07T02:11:41;7.28;;;4.60;;
56435;SDS011;42335;44.872;20.658;2022-12-07T02:14:07;5.80;;;4.07;;
56435;SDS011;42335;44.872;20.658;2022-12-07T02:16:36;7.97;;;4.43;;
56435;SDS011;42335;44.872;20.658;2022-12-07T02:27:46;9.90;;;5.18;;
56435;SDS011;42335;44.872;20.658;2022-12-07T02:30:21;9.05;;;5.75;;
56435;SDS011;42335;44.872;20.658;2022-12-07T02:32:55;9.73;;;6.38;;
56435;SDS011;42335;44.872;20.658;2022-12-07T02:40:55;14.73;;;7.65;;
56435;SDS011;42335;44.872;20.658;2022-12-07T02:43:28;10.37;;;6.67;;
56435;SDS011;42335;44.872;20.658;2022-12-07T02:46:04;12.52;;;7.90;;
56435;SDS011;42335;44.872;20.658;2022-12-07T02:48:33;17.77;;;10.25;;
56435;SDS011;42335;44.872;20.658;2022-12-07T02:51:00;19.05;;;9.60;;
56435;SDS011;42335;44.872;20.658;2022-12-07T02:53:30;15.13;;;10.00;;
56435;SDS011;42335;44.872;20.658;2022-12-07T02:56:26;14.43;;;9.18;;
56435;SDS011;42335;44.872;20.658;2022-12-07T03:07:21;16.63;;;10.25;;
56435;SDS011;42335;44.872;20.658;2022-12-07T03:10:03;16.85;;;10.02;;
56435;SDS011;42335;44.872;20.658;2022-12-07T03:12:43;18.30;;;10.18;;
56435;SDS011;42335;44.872;20.658;2022-12-07T03:15:40;19.15;;;10.55;;
56435;SDS011;42335;44.872;20.658;2022-12-07T03:18:23;17.27;;;9.77;;
56435;SDS011;42335;44.872;20.658;2022-12-07T03:20:53;62.88;;;39.25;;
56435;SDS011;42335;44.872;20.658;2022-12-07T03:23:22;28.38;;;20.10;;
56435;SDS011;42335;44.872;20.658;2022-12-07T03:25:56;22.30;;;13.02;;
56435;SDS011;42335;44.872;20.658;2022-12-07T03:28:26;18.65;;;10.82;;
56435;SDS011;42335;44.872;20.658;2022-12-07T03:31:13;16.00;;;9.85;;
56435;SDS011;42335;44.872;20.658;2022-12-07T03:36:17;15.27;;;9.15;;
56435;SDS011;42335;44.872;20.658;2022-12-07T03:38:48;16.98;;;9.70;;
56435;SDS011;42335;44.872;20.658;2022-12-07T03:41:27;17.75;;;10.55;;
56435;SDS011;42335;44.872;20.658;2022-12-07T03:43:55;15.73;;;8.90;;
56435;SDS011;42335;44.872;20.658;2022-12-07T03:49:11;17.75;;;10.05;;
56435;SDS011;42335;44.872;20.658;2022-12-07T03:54:58;17.70;;;9.48;;
56435;SDS011;42335;44.872;20.658;2022-12-07T03:57:29;16.17;;;9.65;;
56435;SDS011;42335;44.872;20.658;2022-12-07T03:59:56;18.88;;;11.00;;
56435;SDS011;42335;44.872;20.658;2022-12-07T04:02:23;18.80;;;10.25;;
56435;SDS011;42335;44.872;20.658;2022-12-07T04:04:51;20.23;;;10.40;;
56435;SDS011;42335;44.872;20.658;2022-12-07T04:07:17;19.70;;;11.40;;
56435;SDS011;42335;44.872;20.658;2022-12-07T04:09:43;19.90;;;11.95;;
56435;SDS011;42335;44.872;20.658;2022-12-07T04:12:09;26.67;;;16.00;;
56435;SDS011;42335;44.872;20.658;2022-12-07T04:14:35;29.27;;;16.38;;
56435;SDS011;42335;44.872;20.658;2022-12-07T04:17:00;30.05;;;16.20;;
56435;SDS011;42335;44.872;20.658;2022-12-07T04:19:30;26.75;;;16.23;;
56435;SDS011;42335;44.872;20.658;2022-12-07T04:21:58;24.58;;;14.45;;
56435;SDS011;42335;44.872;20.658;2022-12-07T04:24:25;26.92;;;14.27;;
56435;SDS011;42335;44.872;20.658;2022-12-07T04:26:51;27.23;;;14.32;;
56435;SDS011;42335;44.872;20.658;2022-12-07T04:29:18;30.38;;;14.60;;
56435;SDS011;42335;44.872;20.658;2022-12-07T04:31:44;17.65;;;10.93;;
56435;SDS011;42335;44.872;20.658;2022-12-07T04:34:10;20.75;;;11.95;;
56435;SDS011;42335;44.872;20.658;2022-12-07T04:36:36;18.52;;;11.10;;
56435;SDS011;42335;44.872;20.658;2022-12-07T04:39:03;21.15;;;11.23;;
56435;SDS011;42335;44.872;20.658;2022-12-07T04:41:29;21.80;;;11.50;;
56435;SDS011;42335;44.872;20.658;2022-12-07T04:43:56;24.33;;;11.85;;
56435;SDS011;42335;44.872;20.658;2022-12-07T04:46:23;18.98;;;10.75;;
56435;SDS011;42335;44.872;20.658;2022-12-07T04:48:50;24.00;;;12.07;;
56435;SDS011;42335;44.872;20.658;2022-12-07T04:51:18;29.48;;;14.90;;
56435;SDS011;42335;44.872;20.658;2022-12-07T04:53:46;32.08;;;16.55;;
56435;SDS011;42335;44.872;20.658;2022-12-07T04:56:12;24.25;;;14.05;;
56435;SDS011;42335;44.872;20.658;2022-12-07T04:58:38;20.40;;;11.45;;
56435;SDS011;42335;44.872;20.658;2022-12-07T05:01:03;19.25;;;12.60;;
56435;SDS011;42335;44.872;20.658;2022-12-07T05:03:29;76.90;;;44.78;;
56435;SDS011;42335;44.872;20.658;2022-12-07T05:05:55;43.42;;;22.58;;
56435;SDS011;42335;44.872;20.658;2022-12-07T05:08:20;68.25;;;38.92;;
56435;SDS011;42335;44.872;20.658;2022-12-07T05:10:48;35.35;;;19.30;;
56435;SDS011;42335;44.872;20.658;2022-12-07T05:13:14;25.17;;;13.18;;
56435;SDS011;42335;44.872;20.658;2022-12-07T05:15:39;41.85;;;23.40;;
56435;SDS011;42335;44.872;20.658;2022-12-07T05:18:05;23.95;;;12.50;;
56435;SDS011;42335;44.872;20.658;2022-12-07T05:20:31;20.02;;;11.80;;
56435;SDS011;42335;44.872;20.658;2022-12-07T05:22:57;20.80;;;11.93;;
56435;SDS011;42335;44.872;20.658;2022-12-07T05:25:23;21.50;;;11.68;;
56435;SDS011;42335;44.872;20.658;2022-12-07T05:27:49;50.17;;;25.58;;
56435;SDS011;42335;44.872;20.658;2022-12-07T05:30:15;33.70;;;17.67;;
56435;SDS011;42335;44.872;20.658;2022-12-07T05:32:40;20.30;;;12.32;;
56435;SDS011;42335;44.872;20.658;2022-12-07T05:35:06;23.02;;;12.20;;
56435;SDS011;42335;44.872;20.658;2022-12-07T05:37:32;34.30;;;15.63;;
56435;SDS011;42335;44.872;20.658;2022-12-07T05:39:58;31.70;;;15.32;;
56435;SDS011;42335;44.872;20.658;2022-12-07T05:42:23;28.83;;;15.45;;
56435;SDS011;42335;44.872;20.658;2022-12-07T05:44:49;26.48;;;13.88;;
56435;SDS011;42335;44.872;20.658;2022-12-07T05:47:15;23.00;;;14.63;;
56435;SDS011;42335;44.872;20.658;2022-12-07T05:49:41;25.85;;;15.18;;
56435;SDS011;42335;44.872;20.658;2022-12-07T05:52:07;27.20;;;13.77;;
56435;SDS011;42335;44.872;20.658;2022-12-07T05:54:33;22.92;;;14.05;;
56435;SDS011;42335;44.872;20.658;2022-12-07T05:56:59;25.20;;;14.98;;
56435;SDS011;42335;44.872;20.658;2022-12-07T05:59:24;29.67;;;15.25;;
56435;SDS011;42335;44.872;20.658;2022-12-07T06:01:53;29.92;;;16.70;;
56435;SDS011;42335;44.872;20.658;2022-12-07T06:04:19;26.65;;;14.68;;
56435;SDS011;42335;44.872;20.658;2022-12-07T06:06:46;26.00;;;13.70;;
56435;SDS011;42335;44.872;20.658;2022-12-07T06:09:12;28.80;;;16.27;;
56435;SDS011;42335;44.872;20.658;2022-12-07T06:11:39;25.50;;;13.82;;
56435;SDS011;42335;44.872;20.658;2022-12-07T06:14:23;33.17;;;16.83;;
56435;SDS011;42335;44.872;20.658;2022-12-07T06:16:49;29.23;;;13.15;;
56435;SDS011;42335;44.872;20.658;2022-12-07T06:19:15;26.50;;;14.88;;
56435;SDS011;42335;44.872;20.658;2022-12-07T06:21:41;33.05;;;18.60;;
56435;SDS011;42335;44.872;20.658;2022-12-07T06:24:08;38.38;;;20.58;;
56435;SDS011;42335;44.872;20.658;2022-12-07T06:26:36;36.35;;;18.88;;
56435;SDS011;42335;44.872;20.658;2022-12-07T06:29:02;34.70;;;18.23;;
56435;SDS011;42335;44.872;20.658;2022-12-07T06:31:28;30.63;;;16.63;;
56435;SDS011;42335;44.872;20.658;2022-12-07T06:34:00;34.55;;;18.98;;
56435;SDS011;42335;44.872;20.658;2022-12-07T06:38:53;20.55;;;13.43;;
56435;SDS011;42335;44.872;20.658;2022-12-07T06:41:19;318.20;;;177.00;;
56435;SDS011;42335;44.872;20.658;2022-12-07T06:43:45;163.88;;;103.43;;
56435;SDS011;42335;44.872;20.658;2022-12-07T06:46:11;40.55;;;20.92;;
56435;SDS011;42335;44.872;20.658;2022-12-07T06:48:37;132.73;;;81.82;;
56435;SDS011;42335;44.872;20.658;2022-12-07T06:51:03;91.65;;;50.03;;
56435;SDS011;42335;44.872;20.658;2022-12-07T06:53:29;52.47;;;28.75;;
56435;SDS011;42335;44.872;20.658;2022-12-07T06:55:54;32.70;;;19.15;;
56435;SDS011;42335;44.872;20.658;2022-12-07T06:58:20;28.85;;;16.13;;
56435;SDS011;42335;44.872;20.658;2022-12-07T07:00:47;30.10;;;16.20;;
56435;SDS011;42335;44.872;20.658;2022-12-07T07:03:13;31.60;;;16.35;;
56435;SDS011;42335;44.872;20.658;2022-12-07T07:05:39;23.08;;;13.23;;
56435;SDS011;42335;44.872;20.658;2022-12-07T07:08:05;22.13;;;11.82;;
56435;SDS011;42335;44.872;20.658;2022-12-07T07:10:31;24.13;;;12.98;;
56435;SDS011;42335;44.872;20.658;2022-12-07T07:12:57;19.58;;;12.00;;
56435;SDS011;42335;44.872;20.658;2022-12-07T07:15:22;21.08;;;12.25;;
56435;SDS011;42335;44.872;20.658;2022-12-07T07:17:48;21.08;;;12.52;;
56435;SDS011;42335;44.872;20.658;2022-12-07T07:20:14;25.20;;;13.65;;
56435;SDS011;42335;44.872;20.658;2022-12-07T07:22:40;23.20;;;14.18;;
56435;SDS011;42335;44.872;20.658;2022-12-07T07:25:06;23.67;;;13.27;;
56435;SDS011;42335;44.872;20.658;2022-12-07T07:27:32;24.08;;;14.25;;
56435;SDS011;42335;44.872;20.658;2022-12-07T07:29:57;24.58;;;14.30;;
56435;SDS011;42335;44.872;20.658;2022-12-07T07:32:23;21.38;;;12.13;;
56435;SDS011;42335;44.872;20.658;2022-12-07T07:34:49;23.95;;;13.20;;
56435;SDS011;42335;44.872;20.658;2022-12-07T07:37:14;22.35;;;11.40;;
56435;SDS011;42335;44.872;20.658;2022-12-07T07:39:40;19.85;;;12.40;;
56435;SDS011;42335;44.872;20.658;2022-12-07T07:42:06;24.70;;;14.52;;
56435;SDS011;42335;44.872;20.658;2022-12-07T07:44:32;19.38;;;11.85;;
56435;SDS011;42335;44.872;20.658;2022-12-07T07:46:59;21.48;;;12.27;;
56435;SDS011;42335;44.872;20.658;2022-12-07T07:49:25;22.95;;;13.80;;
56435;SDS011;42335;44.872;20.658;2022-12-07T07:51:51;23.45;;;15.27;;
56435;SDS011;42335;44.872;20.658;2022-12-07T07:54:16;20.40;;;12.93;;
56435;SDS011;42335;44.872;20.658;2022-12-07T07:56:42;23.90;;;13.05;;
56435;SDS011;42335;44.872;20.658;2022-12-07T07:59:08;21.63;;;14.00;;
56435;SDS011;42335;44.872;20.658;2022-12-07T08:01:33;41.35;;;21.52;;
56435;SDS011;42335;44.872;20.658;2022-12-07T08:03:59;35.53;;;18.58;;
56435;SDS011;42335;44.872;20.658;2022-12-07T08:06:25;37.88;;;22.58;;
56435;SDS011;42335;44.872;20.658;2022-12-07T08:08:50;100.18;;;39.97;;
56435;SDS011;42335;44.872;20.658;2022-12-07T08:11:16;78.70;;;35.05;;
56435;SDS011;42335;44.872;20.658;2022-12-07T08:13:44;59.22;;;31.75;;
56435;SDS011;42335;44.872;20.658;2022-12-07T08:16:11;49.28;;;27.55;;
56435;SDS011;42335;44.872;20.658;2022-12-07T08:18:38;42.80;;;25.23;;
56435;SDS011;42335;44.872;20.658;2022-12-07T08:21:05;30.80;;;19.45;;
56435;SDS011;42335;44.872;20.658;2022-12-07T08:23:32;28.92;;;19.02;;
56435;SDS011;42335;44.872;20.658;2022-12-07T08:26:06;39.80;;;24.00;;
56435;SDS011;42335;44.872;20.658;2022-12-07T08:28:33;37.05;;;23.83;;
56435;SDS011;42335;44.872;20.658;2022-12-07T08:31:00;43.72;;;26.17;;
56435;SDS011;42335;44.872;20.658;2022-12-07T08:33:26;47.90;;;29.15;;
56435;SDS011;42335;44.872;20.658;2022-12-07T08:35:53;48.85;;;28.42;;
56435;SDS011;42335;44.872;20.658;2022-12-07T08:38:18;57.50;;;34.38;;
56435;SDS011;42335;44.872;20.658;2022-12-07T08:40:44;55.42;;;31.38;;
56435;SDS011;42335;44.872;20.658;2022-12-07T08:43:09;58.13;;;30.75;;
56435;SDS011;42335;44.872;20.658;2022-12-07T08:45:35;53.65;;;32.28;;
56435;SDS011;42335;44.872;20.658;2022-12-07T08:48:02;48.42;;;29.48;;
56435;SDS011;42335;44.872;20.658;2022-12-07T08:50:32;49.10;;;30.02;;
56435;SDS011;42335;44.872;20.658;2022-12-07T08:52:59;43.83;;;26.02;;
56435;SDS011;42335;44.872;20.658;2022-12-07T08:55:26;42.15;;;25.20;;
56435;SDS011;42335;44.872;20.658;2022-12-07T08:57:53;39.67;;;24.27;;
56435;SDS011;42335;44.872;20.658;2022-12-07T09:00:19;42.90;;;22.73;;
56435;SDS011;42335;44.872;20.658;2022-12-07T09:02:45;37.13;;;24.60;;
56435;SDS011;42335;44.872;20.658;2022-12-07T09:05:11;37.20;;;23.17;;
56435;SDS011;42335;44.872;20.658;2022-12-07T09:07:39;38.53;;;23.67;;
56435;SDS011;42335;44.872;20.658;2022-12-07T09:10:08;42.40;;;24.10;;
56435;SDS011;42335;44.872;20.658;2022-12-07T09:12:34;36.95;;;23.90;;
56435;SDS011;42335;44.872;20.658;2022-12-07T09:14:59;39.50;;;22.63;;
56435;SDS011;42335;44.872;20.658;2022-12-07T09:17:25;36.15;;;22.40;;
56435;SDS011;42335;44.872;20.658;2022-12-07T09:19:51;41.97;;;24.50;;
56435;SDS011;42335;44.872;20.658;2022-12-07T09:22:17;46.10;;;25.02;;
56435;SDS011;42335;44.872;20.658;2022-12-07T09:24:43;54.80;;;30.63;;
56435;SDS011;42335;44.872;20.658;2022-12-07T09:27:10;56.83;;;33.17;;
56435;SDS011;42335;44.872;20.658;2022-12-07T09:29:36;55.88;;;34.13;;
56435;SDS011;42335;44.872;20.658;2022-12-07T09:32:02;59.33;;;36.95;;
56435;SDS011;42335;44.872;20.658;2022-12-07T09:34:30;69.50;;;40.05;;
56435;SDS011;42335;44.872;20.658;2022-12-07T09:36:57;80.93;;;45.58;;
56435;SDS011;42335;44.872;20.658;2022-12-07T09:39:23;71.57;;;43.40;;
56435;SDS011;42335;44.872;20.658;2022-12-07T09:41:48;63.65;;;37.42;;
56435;SDS011;42335;44.872;20.658;2022-12-07T09:44:17;61.20;;;36.25;;
56435;SDS011;42335;44.872;20.658;2022-12-07T09:46:48;60.28;;;33.92;;
56435;SDS011;42335;44.872;20.658;2022-12-07T09:49:18;58.80;;;32.95;;
56435;SDS011;42335;44.872;20.658;2022-12-07T09:51:46;54.97;;;33.00;;
56435;SDS011;42335;44.872;20.658;2022-12-07T09:54:13;47.75;;;26.88;;
56435;SDS011;42335;44.872;20.658;2022-12-07T09:56:40;42.10;;;24.10;;
56435;SDS011;42335;44.872;20.658;2022-12-07T09:59:09;43.72;;;23.60;;
56435;SDS011;42335;44.872;20.658;2022-12-07T10:01:41;41.92;;;23.30;;
56435;SDS011;42335;44.872;20.658;2022-12-07T10:04:12;39.63;;;25.25;;
56435;SDS011;42335;44.872;20.658;2022-12-07T10:06:42;46.45;;;25.48;;
56435;SDS011;42335;44.872;20.658;2022-12-07T10:09:11;51.97;;;29.98;;
56435;SDS011;42335;44.872;20.658;2022-12-07T10:14:35;39.25;;;23.83;;
56435;SDS011;42335;44.872;20.658;2022-12-07T10:17:02;29.35;;;18.42;;
56435;SDS011;42335;44.872;20.658;2022-12-07T10:19:48;28.58;;;18.20;;
56435;SDS011;42335;44.872;20.658;2022-12-07T10:22:15;31.58;;;18.77;;
56435;SDS011;42335;44.872;20.658;2022-12-07T10:24:42;45.50;;;26.70;;
56435;SDS011;42335;44.872;20.658;2022-12-07T10:27:21;61.85;;;34.47;;
56435;SDS011;42335;44.872;20.658;2022-12-07T10:29:52;61.17;;;35.53;;
56435;SDS011;42335;44.872;20.658;2022-12-07T10:34:44;52.90;;;32.72;;
56435;SDS011;42335;44.872;20.658;2022-12-07T10:39:42;59.45;;;35.38;;
56435;SDS011;42335;44.872;20.658;2022-12-07T10:42:28;59.83;;;38.30;;
56435;SDS011;42335;44.872;20.658;2022-12-07T10:47:38;58.72;;;35.40;;
56435;SDS011;42335;44.872;20.658;2022-12-07T10:50:41;60.22;;;35.95;;
56435;SDS011;42335;44.872;20.658;2022-12-07T11:04:43;52.08;;;29.05;;
56435;SDS011;42335;44.872;20.658;2022-12-07T11:15:35;58.08;;;33.90;;
56435;SDS011;42335;44.872;20.658;2022-12-07T11:18:31;67.72;;;34.95;;
56435;SDS011;42335;44.872;20.658;2022-12-07T11:21:13;58.70;;;30.00;;
56435;SDS011;42335;44.872;20.658;2022-12-07T11:31:43;40.58;;;24.30;;
56435;SDS011;42335;44.872;20.658;2022-12-07T11:37:20;34.47;;;19.55;;
56435;SDS011;42335;44.872;20.658;2022-12-07T11:39:51;26.77;;;15.40;;
56435;SDS011;42335;44.872;20.658;2022-12-07T11:42:25;23.80;;;16.67;;
56435;SDS011;42335;44.872;20.658;2022-12-07T11:45:03;31.40;;;17.02;;
56435;SDS011;42335;44.872;20.658;2022-12-07T11:47:40;31.35;;;18.88;;
56435;SDS011;42335;44.872;20.658;2022-12-07T11:56:02;34.20;;;19.70;;
56435;SDS011;42335;44.872;20.658;2022-12-07T11:58:40;35.85;;;23.10;;
56435;SDS011;42335;44.872;20.658;2022-12-07T12:01:55;26.10;;;15.88;;
56435;SDS011;42335;44.872;20.658;2022-12-07T12:06:52;33.03;;;20.08;;
56435;SDS011;42335;44.872;20.658;2022-12-07T12:09:32;34.17;;;20.48;;
56435;SDS011;42335;44.872;20.658;2022-12-07T12:20:55;38.17;;;21.13;;
56435;SDS011;42335;44.872;20.658;2022-12-07T12:24:01;50.90;;;28.00;;
56435;SDS011;42335;44.872;20.658;2022-12-07T12:26:29;53.65;;;30.08;;
56435;SDS011;42335;44.872;20.658;2022-12-07T12:33:55;68.22;;;36.00;;
56435;SDS011;42335;44.872;20.658;2022-12-07T12:46:59;48.70;;;28.30;;
56435;SDS011;42335;44.872;20.658;2022-12-07T12:51:59;35.92;;;19.90;;
56435;SDS011;42335;44.872;20.658;2022-12-07T12:54:35;30.42;;;17.65;;
56435;SDS011;42335;44.872;20.658;2022-12-07T12:57:06;38.38;;;20.85;;
56435;SDS011;42335;44.872;20.658;2022-12-07T13:00:19;34.45;;;20.95;;
56435;SDS011;42335;44.872;20.658;2022-12-07T13:02:55;46.97;;;24.98;;
56435;SDS011;42335;44.872;20.658;2022-12-07T13:05:27;43.47;;;24.80;;
56435;SDS011;42335;44.872;20.658;2022-12-07T13:20:46;23.58;;;14.00;;
56435;SDS011;42335;44.872;20.658;2022-12-07T13:23:18;26.10;;;15.60;;
56435;SDS011;42335;44.872;20.658;2022-12-07T13:25:51;30.85;;;18.80;;
56435;SDS011;42335;44.872;20.658;2022-12-07T13:28:40;31.75;;;18.40;;
56435;SDS011;42335;44.872;20.658;2022-12-07T13:31:20;29.58;;;16.77;;
56435;SDS011;42335;44.872;20.658;2022-12-07T13:33:51;26.83;;;17.58;;
56435;SDS011;42335;44.872;20.658;2022-12-07T13:36:24;22.65;;;15.10;;
56435;SDS011;42335;44.872;20.658;2022-12-07T13:41:45;36.08;;;21.70;;
56435;SDS011;42335;44.872;20.658;2022-12-07T13:44:16;45.72;;;26.80;;
56435;SDS011;42335;44.872;20.658;2022-12-07T13:46:45;42.25;;;24.75;;
56435;SDS011;42335;44.872;20.658;2022-12-07T13:49:23;41.85;;;23.15;;
56435;SDS011;42335;44.872;20.658;2022-12-07T13:51:50;45.33;;;26.35;;
56435;SDS011;42335;44.872;20.658;2022-12-07T13:54:18;56.95;;;31.42;;
56435;SDS011;42335;44.872;20.658;2022-12-07T13:56:47;62.97;;;37.15;;
56435;SDS011;42335;44.872;20.658;2022-12-07T13:59:16;60.30;;;34.45;;
56435;SDS011;42335;44.872;20.658;2022-12-07T14:01:45;52.85;;;31.65;;
56435;SDS011;42335;44.872;20.658;2022-12-07T14:06:54;53.00;;;29.70;;
56435;SDS011;42335;44.872;20.658;2022-12-07T14:09:21;51.55;;;28.10;;
56435;SDS011;42335;44.872;20.658;2022-12-07T14:11:49;41.40;;;23.23;;
56435;SDS011;42335;44.872;20.658;2022-12-07T14:14:18;43.95;;;28.23;;
56435;SDS011;42335;44.872;20.658;2022-12-07T14:17:23;55.97;;;30.85;;
56435;SDS011;42335;44.872;20.658;2022-12-07T14:19:54;49.53;;;29.05;;
56435;SDS011;42335;44.872;20.658;2022-12-07T14:24:58;32.03;;;21.80;;
56435;SDS011;42335;44.872;20.658;2022-12-07T14:27:32;33.88;;;21.88;;
56435;SDS011;42335;44.872;20.658;2022-12-07T14:30:02;44.60;;;28.63;;
56435;SDS011;42335;44.872;20.658;2022-12-07T14:32:29;40.45;;;23.08;;
56435;SDS011;42335;44.872;20.658;2022-12-07T14:35:29;41.42;;;23.65;;
56435;SDS011;42335;44.872;20.658;2022-12-07T14:37:47;52.13;;;30.48;;
56435;SDS011;42335;44.872;20.658;2022-12-07T14:40:15;46.95;;;28.65;;
56435;SDS011;42335;44.872;20.658;2022-12-07T14:42:45;44.75;;;26.15;;
56435;SDS011;42335;44.872;20.658;2022-12-07T14:45:19;40.53;;;22.55;;
56435;SDS011;42335;44.872;20.658;2022-12-07T14:47:46;66.80;;;39.25;;
56435;SDS011;42335;44.872;20.658;2022-12-07T14:50:13;71.40;;;44.78;;
56435;SDS011;42335;44.872;20.658;2022-12-07T14:52:40;52.83;;;33.85;;
56435;SDS011;42335;44.872;20.658;2022-12-07T14:55:41;49.00;;;29.48;;
56435;SDS011;42335;44.872;20.658;2022-12-07T14:58:00;46.95;;;26.20;;
56435;SDS011;42335;44.872;20.658;2022-12-07T15:00:26;40.55;;;24.95;;
56435;SDS011;42335;44.872;20.658;2022-12-07T15:02:53;43.30;;;26.42;;
56435;SDS011;42335;44.872;20.658;2022-12-07T15:05:19;39.53;;;25.23;;
56435;SDS011;42335;44.872;20.658;2022-12-07T15:07:46;46.90;;;26.08;;
56435;SDS011;42335;44.872;20.658;2022-12-07T15:12:41;43.78;;;24.70;;
56435;SDS011;42335;44.872;20.658;2022-12-07T15:15:07;302.63;;;120.90;;
56435;SDS011;42335;44.872;20.658;2022-12-07T15:17:33;303.58;;;130.00;;
56435;SDS011;42335;44.872;20.658;2022-12-07T15:19:59;261.65;;;119.47;;
56435;SDS011;42335;44.872;20.658;2022-12-07T15:22:24;100.18;;;49.72;;
56435;SDS011;42335;44.872;20.658;2022-12-07T15:24:50;143.18;;;75.93;;
56435;SDS011;42335;44.872;20.658;2022-12-07T15:27:16;80.45;;;46.90;;
56435;SDS011;42335;44.872;20.658;2022-12-07T15:29:41;75.82;;;46.75;;
56435;SDS011;42335;44.872;20.658;2022-12-07T15:32:08;73.22;;;42.65;;
56435;SDS011;42335;44.872;20.658;2022-12-07T15:34:34;63.58;;;42.08;;
56435;SDS011;42335;44.872;20.658;2022-12-07T15:37:00;64.63;;;41.60;;
56435;SDS011;42335;44.872;20.658;2022-12-07T15:39:26;57.50;;;38.00;;
56435;SDS011;42335;44.872;20.658;2022-12-07T15:41:51;56.35;;;34.08;;
56435;SDS011;42335;44.872;20.658;2022-12-07T15:44:17;99.63;;;60.08;;
56435;SDS011;42335;44.872;20.658;2022-12-07T15:47:01;73.05;;;44.33;;
56435;SDS011;42335;44.872;20.658;2022-12-07T15:49:27;56.22;;;33.63;;
56435;SDS011;42335;44.872;20.658;2022-12-07T15:51:53;58.13;;;36.22;;
56435;SDS011;42335;44.872;20.658;2022-12-07T15:54:23;51.28;;;32.83;;
56435;SDS011;42335;44.872;20.658;2022-12-07T15:56:52;311.98;;;221.18;;
56435;SDS011;42335;44.872;20.658;2022-12-07T15:59:18;57.55;;;33.72;;
56435;SDS011;42335;44.872;20.658;2022-12-07T16:01:44;38.85;;;24.50;;
56435;SDS011;42335;44.872;20.658;2022-12-07T16:04:10;44.30;;;25.10;;
56435;SDS011;42335;44.872;20.658;2022-12-07T16:06:36;56.33;;;31.10;;
56435;SDS011;42335;44.872;20.658;2022-12-07T16:09:02;110.35;;;70.70;;
56435;SDS011;42335;44.872;20.658;2022-12-07T16:11:28;109.45;;;69.18;;
56435;SDS011;42335;44.872;20.658;2022-12-07T16:13:54;70.38;;;43.33;;
56435;SDS011;42335;44.872;20.658;2022-12-07T16:16:20;57.63;;;32.63;;
56435;SDS011;42335;44.872;20.658;2022-12-07T16:18:47;55.97;;;33.08;;
56435;SDS011;42335;44.872;20.658;2022-12-07T16:21:14;76.78;;;42.72;;
56435;SDS011;42335;44.872;20.658;2022-12-07T16:23:40;68.47;;;37.58;;
56435;SDS011;42335;44.872;20.658;2022-12-07T16:26:07;70.22;;;38.35;;
56435;SDS011;42335;44.872;20.658;2022-12-07T16:28:36;71.38;;;41.40;;
56435;SDS011;42335;44.872;20.658;2022-12-07T16:31:05;100.97;;;65.82;;
56435;SDS011;42335;44.872;20.658;2022-12-07T16:33:34;87.70;;;51.10;;
56435;SDS011;42335;44.872;20.658;2022-12-07T16:36:01;93.28;;;58.47;;
56435;SDS011;42335;44.872;20.658;2022-12-07T16:38:28;68.05;;;42.65;;
56435;SDS011;42335;44.872;20.658;2022-12-07T16:40:53;66.10;;;40.22;;
56435;SDS011;42335;44.872;20.658;2022-12-07T16:43:19;65.68;;;39.03;;